sensor_id;sensor_type;location;lat;lon;timestamp;pressure;altitude;pressure_sealevel;temperature;humidity
42297;BME280;72430;47.456;19.016;2023-10-08T00:02:15;100446.59;;;18.24;42.68
42297;BME280;72430;47.456;19.016;2023-10-08T00:05:24;100442.84;;;18.25;42.70
42297;BME280;72430;47.456;19.016;2023-10-08T00:08:26;100441.16;;;18.24;42.71
42297;BME280;72430;47.456;19.016;2023-10-08T00:11:28;100429.78;;;18.20;42.96
42297;BME280;72430;47.456;19.016;2023-10-08T00:14:31;100424.91;;;18.16;42.42
42297;BME280;72430;47.456;19.016;2023-10-08T00:17:45;100435.06;;;18.22;42.41
42297;BME280;72430;47.456;19.016;2023-10-08T00:20:48;100426.78;;;18.15;42.59
42297;BME280;72430;47.456;19.016;2023-10-08T00:24:08;100420.28;;;18.16;42.74
42297;BME280;72430;47.456;19.016;2023-10-08T00:27:10;100408.28;;;18.10;43.51
42297;BME280;72430;47.456;19.016;2023-10-08T00:30:16;100425.19;;;18.06;43.37
42297;BME280;72430;47.456;19.016;2023-10-08T00:33:19;100427.69;;;18.07;43.35
42297;BME280;72430;47.456;19.016;2023-10-08T00:36:22;100422.59;;;18.04;43.79
42297;BME280;72430;47.456;19.016;2023-10-08T00:39:25;100416.69;;;18.01;43.31
42297;BME280;72430;47.456;19.016;2023-10-08T00:42:35;100417.72;;;18.00;43.79
42297;BME280;72430;47.456;19.016;2023-10-08T00:45:37;100413.00;;;17.93;43.68
42297;BME280;72430;47.456;19.016;2023-10-08T00:48:46;100409.25;;;17.94;43.59
42297;BME280;72430;47.456;19.016;2023-10-08T00:51:54;100409.16;;;17.88;43.96
42297;BME280;72430;47.456;19.016;2023-10-08T00:55:26;100409.44;;;17.93;44.06
42297;BME280;72430;47.456;19.016;2023-10-08T00:58:32;100409.31;;;17.86;47.06
42297;BME280;72430;47.456;19.016;2023-10-08T01:01:36;100401.84;;;17.88;45.25
42297;BME280;72430;47.456;19.016;2023-10-08T01:04:41;100401.06;;;17.79;44.89
42297;BME280;72430;47.456;19.016;2023-10-08T01:07:46;100401.97;;;17.71;47.24
42297;BME280;72430;47.456;19.016;2023-10-08T01:10:53;100399.41;;;17.55;48.31
42297;BME280;72430;47.456;19.016;2023-10-08T01:14:03;100396.38;;;17.50;48.63
42297;BME280;72430;47.456;19.016;2023-10-08T01:17:13;100388.53;;;17.31;49.57
42297;BME280;72430;47.456;19.016;2023-10-08T01:20:20;100384.53;;;17.19;49.63
42297;BME280;72430;47.456;19.016;2023-10-08T01:23:44;100374.75;;;17.01;50.12
42297;BME280;72430;47.456;19.016;2023-10-08T01:26:48;100388.50;;;16.76;52.08
42297;BME280;72430;47.456;19.016;2023-10-08T01:29:51;100386.88;;;16.67;52.56
42297;BME280;72430;47.456;19.016;2023-10-08T01:32:54;100379.31;;;16.46;52.78
42297;BME280;72430;47.456;19.016;2023-10-08T01:35:56;100375.22;;;16.50;52.89
42297;BME280;72430;47.456;19.016;2023-10-08T01:39:06;100373.75;;;16.31;54.40
42297;BME280;72430;47.456;19.016;2023-10-08T01:42:09;100362.28;;;16.20;56.06
42297;BME280;72430;47.456;19.016;2023-10-08T01:45:18;100374.13;;;16.28;54.15
42297;BME280;72430;47.456;19.016;2023-10-08T01:48:20;100354.56;;;16.41;52.58
42297;BME280;72430;47.456;19.016;2023-10-08T01:51:30;100353.53;;;16.42;53.31
42297;BME280;72430;47.456;19.016;2023-10-08T01:54:40;100339.28;;;16.31;52.14
42297;BME280;72430;47.456;19.016;2023-10-08T01:57:42;100336.25;;;16.26;53.06
42297;BME280;72430;47.456;19.016;2023-10-08T02:00:46;100331.97;;;16.40;50.75
42297;BME280;72430;47.456;19.016;2023-10-08T02:03:48;100328.03;;;16.43;50.44
42297;BME280;72430;47.456;19.016;2023-10-08T02:06:50;100334.13;;;16.53;49.41
42297;BME280;72430;47.456;19.016;2023-10-08T02:09:52;100344.75;;;16.63;48.71
42297;BME280;72430;47.456;19.016;2023-10-08T02:12:54;100341.09;;;16.79;48.45
42297;BME280;72430;47.456;19.016;2023-10-08T02:15:57;100347.41;;;16.71;48.68
42297;BME280;72430;47.456;19.016;2023-10-08T02:18:59;100337.66;;;16.85;48.37
42297;BME280;72430;47.456;19.016;2023-10-08T02:22:01;100324.22;;;16.84;48.22
42297;BME280;72430;47.456;19.016;2023-10-08T02:25:04;100319.97;;;16.89;48.08
42297;BME280;72430;47.456;19.016;2023-10-08T02:28:07;100321.78;;;16.97;47.79
42297;BME280;72430;47.456;19.016;2023-10-08T02:31:17;100319.22;;;16.96;47.67
42297;BME280;72430;47.456;19.016;2023-10-08T02:34:19;100321.09;;;16.95;48.06
42297;BME280;72430;47.456;19.016;2023-10-08T02:37:21;100319.41;;;16.94;47.28
42297;BME280;72430;47.456;19.016;2023-10-08T02:40:23;100305.97;;;16.92;47.54
42297;BME280;72430;47.456;19.016;2023-10-08T02:43:28;100305.34;;;16.90;47.69
42297;BME280;72430;47.456;19.016;2023-10-08T02:46:31;100295.31;;;16.91;47.91
42297;BME280;72430;47.456;19.016;2023-10-08T02:49:34;100307.03;;;16.91;47.54
42297;BME280;72430;47.456;19.016;2023-10-08T02:52:38;100309.00;;;16.98;47.55
42297;BME280;72430;47.456;19.016;2023-10-08T02:55:40;100299.25;;;16.88;47.91
42297;BME280;72430;47.456;19.016;2023-10-08T02:58:51;100308.91;;;16.91;48.17
42297;BME280;72430;47.456;19.016;2023-10-08T03:01:53;100293.91;;;16.95;48.14
42297;BME280;72430;47.456;19.016;2023-10-08T03:04:57;100276.28;;;16.91;48.16
42297;BME280;72430;47.456;19.016;2023-10-08T03:07:59;100284.06;;;16.94;48.21
42297;BME280;72430;47.456;19.016;2023-10-08T03:11:01;100276.59;;;16.96;48.33
42297;BME280;72430;47.456;19.016;2023-10-08T03:14:08;100281.13;;;17.04;47.77
42297;BME280;72430;47.456;19.016;2023-10-08T03:17:16;100279.91;;;17.07;47.78
42297;BME280;72430;47.456;19.016;2023-10-08T03:20:22;100287.25;;;17.06;48.08
42297;BME280;72430;47.456;19.016;2023-10-08T03:23:42;100290.81;;;17.22;46.85
42297;BME280;72430;47.456;19.016;2023-10-08T03:26:49;100272.25;;;17.25;47.10
42297;BME280;72430;47.456;19.016;2023-10-08T03:29:57;100282.53;;;17.38;46.67
42297;BME280;72430;47.456;19.016;2023-10-08T03:33:00;100275.22;;;17.39;46.74
42297;BME280;72430;47.456;19.016;2023-10-08T03:36:07;100268.84;;;17.47;46.63
42297;BME280;72430;47.456;19.016;2023-10-08T03:39:36;100262.66;;;17.53;46.81
42297;BME280;72430;47.456;19.016;2023-10-08T03:42:56;100263.13;;;17.41;46.91
42297;BME280;72430;47.456;19.016;2023-10-08T03:45:57;100260.47;;;17.48;47.21
42297;BME280;72430;47.456;19.016;2023-10-08T03:49:07;100242.28;;;17.49;47.04
42297;BME280;72430;47.456;19.016;2023-10-08T03:52:17;100241.63;;;17.47;47.25
42297;BME280;72430;47.456;19.016;2023-10-08T03:55:25;100217.63;;;17.50;46.94
42297;BME280;72430;47.456;19.016;2023-10-08T03:58:28;100228.28;;;17.52;47.16
42297;BME280;72430;47.456;19.016;2023-10-08T04:01:42;100234.78;;;17.51;46.83
42297;BME280;72430;47.456;19.016;2023-10-08T04:04:44;100238.63;;;17.56;47.11
42297;BME280;72430;47.456;19.016;2023-10-08T04:07:53;100247.91;;;17.62;46.88
42297;BME280;72430;47.456;19.016;2023-10-08T04:11:01;100225.78;;;17.65;47.32
42297;BME280;72430;47.456;19.016;2023-10-08T04:14:30;100221.16;;;17.66;47.26
42297;BME280;72430;47.456;19.016;2023-10-08T04:17:33;100215.81;;;17.57;47.85
42297;BME280;72430;47.456;19.016;2023-10-08T04:20:45;100232.91;;;17.66;47.38
42297;BME280;72430;47.456;19.016;2023-10-08T04:24:03;100217.91;;;17.70;47.02
42297;BME280;72430;47.456;19.016;2023-10-08T04:27:06;100217.03;;;17.70;47.35
42297;BME280;72430;47.456;19.016;2023-10-08T04:30:11;100214.78;;;17.74;47.41
42297;BME280;72430;47.456;19.016;2023-10-08T04:33:15;100204.81;;;17.66;47.90
42297;BME280;72430;47.456;19.016;2023-10-08T04:36:17;100211.03;;;17.75;47.79
42297;BME280;72430;47.456;19.016;2023-10-08T04:39:22;100216.84;;;17.87;47.83
42297;BME280;72430;47.456;19.016;2023-10-08T04:42:33;100221.81;;;17.98;47.39
42297;BME280;72430;47.456;19.016;2023-10-08T04:45:42;100216.81;;;18.17;46.62
42297;BME280;72430;47.456;19.016;2023-10-08T04:48:53;100208.59;;;18.32;46.14
42297;BME280;72430;47.456;19.016;2023-10-08T04:51:58;100211.59;;;18.37;46.47
42297;BME280;72430;47.456;19.016;2023-10-08T04:55:00;100222.69;;;18.57;46.55
42297;BME280;72430;47.456;19.016;2023-10-08T04:58:14;100221.41;;;18.53;47.45
42297;BME280;72430;47.456;19.016;2023-10-08T05:01:22;100221.84;;;18.78;44.69
42297;BME280;72430;47.456;19.016;2023-10-08T05:04:42;100208.38;;;18.99;44.59
42297;BME280;72430;47.456;19.016;2023-10-08T05:07:53;100205.53;;;19.07;43.80
42297;BME280;72430;47.456;19.016;2023-10-08T05:11:02;100196.63;;;19.20;42.98
42297;BME280;72430;47.456;19.016;2023-10-08T05:14:19;100200.66;;;19.31;43.52
42297;BME280;72430;47.456;19.016;2023-10-08T05:17:36;100205.44;;;19.22;44.78
42297;BME280;72430;47.456;19.016;2023-10-08T05:20:58;100209.97;;;19.43;44.22
42297;BME280;72430;47.456;19.016;2023-10-08T05:24:01;100201.97;;;19.35;44.30
42297;BME280;72430;47.456;19.016;2023-10-08T05:27:15;100215.69;;;19.49;45.91
42297;BME280;72430;47.456;19.016;2023-10-08T05:30:37;100223.59;;;19.72;49.08
42297;BME280;72430;47.456;19.016;2023-10-08T05:33:40;100224.72;;;19.91;46.52
42297;BME280;72430;47.456;19.016;2023-10-08T05:37:00;100229.22;;;19.99;44.23
42297;BME280;72430;47.456;19.016;2023-10-08T05:40:02;100233.03;;;20.05;45.27
42297;BME280;72430;47.456;19.016;2023-10-08T05:43:15;100234.13;;;20.17;43.44
42297;BME280;72430;47.456;19.016;2023-10-08T05:46:35;100236.47;;;20.27;48.50
42297;BME280;72430;47.456;19.016;2023-10-08T05:49:41;100244.47;;;20.35;43.22
42297;BME280;72430;47.456;19.016;2023-10-08T05:52:57;100260.25;;;20.33;43.31
42297;BME280;72430;47.456;19.016;2023-10-08T05:56:05;100258.44;;;20.54;42.93
42297;BME280;72430;47.456;19.016;2023-10-08T05:59:18;100265.50;;;20.42;43.82
42297;BME280;72430;47.456;19.016;2023-10-08T06:02:31;100266.19;;;20.50;42.94
42297;BME280;72430;47.456;19.016;2023-10-08T06:05:36;100264.91;;;20.53;42.95
42297;BME280;72430;47.456;19.016;2023-10-08T06:08:45;100265.56;;;20.62;42.65
42297;BME280;72430;47.456;19.016;2023-10-08T06:12:06;100267.25;;;20.56;42.87
42297;BME280;72430;47.456;19.016;2023-10-08T06:15:21;100278.22;;;20.70;43.33
42297;BME280;72430;47.456;19.016;2023-10-08T06:18:39;100277.81;;;20.73;42.70
42297;BME280;72430;47.456;19.016;2023-10-08T06:21:42;100283.28;;;20.73;42.22
42297;BME280;72430;47.456;19.016;2023-10-08T06:24:44;100291.66;;;20.64;43.19
42297;BME280;72430;47.456;19.016;2023-10-08T06:27:46;100280.97;;;20.76;42.72
42297;BME280;72430;47.456;19.016;2023-10-08T06:30:50;100281.47;;;20.87;42.79
42297;BME280;72430;47.456;19.016;2023-10-08T06:33:55;100288.59;;;20.88;42.75
42297;BME280;72430;47.456;19.016;2023-10-08T06:36:59;100284.41;;;20.92;42.70
42297;BME280;72430;47.456;19.016;2023-10-08T06:40:01;100298.50;;;21.02;42.45
42297;BME280;72430;47.456;19.016;2023-10-08T06:43:06;100304.84;;;21.10;42.58
42297;BME280;72430;47.456;19.016;2023-10-08T06:46:17;100299.38;;;21.10;42.05
42297;BME280;72430;47.456;19.016;2023-10-08T06:49:23;100308.22;;;21.12;42.23
42297;BME280;72430;47.456;19.016;2023-10-08T06:52:25;100313.25;;;21.08;42.17
42297;BME280;72430;47.456;19.016;2023-10-08T06:55:28;100305.69;;;21.17;42.24
42297;BME280;72430;47.456;19.016;2023-10-08T06:58:30;100314.72;;;21.17;42.10
42297;BME280;72430;47.456;19.016;2023-10-08T07:01:35;100302.31;;;21.15;42.63
42297;BME280;72430;47.456;19.016;2023-10-08T07:04:40;100295.16;;;21.00;43.39
42297;BME280;72430;47.456;19.016;2023-10-08T07:07:45;100287.16;;;21.05;42.74
42297;BME280;72430;47.456;19.016;2023-10-08T07:10:47;100303.56;;;20.99;42.48
42297;BME280;72430;47.456;19.016;2023-10-08T07:13:50;100301.03;;;20.97;42.29
42297;BME280;72430;47.456;19.016;2023-10-08T07:16:56;100292.84;;;21.04;42.58
42297;BME280;72430;47.456;19.016;2023-10-08T07:20:03;100291.34;;;21.15;42.11
42297;BME280;72430;47.456;19.016;2023-10-08T07:23:12;100274.53;;;21.18;42.81
42297;BME280;72430;47.456;19.016;2023-10-08T07:26:35;100291.78;;;21.39;43.09
42297;BME280;72430;47.456;19.016;2023-10-08T07:29:38;100298.31;;;21.44;43.24
42297;BME280;72430;47.456;19.016;2023-10-08T07:32:40;100298.09;;;21.46;43.22
42297;BME280;72430;47.456;19.016;2023-10-08T07:35:47;100287.56;;;21.50;43.27
42297;BME280;72430;47.456;19.016;2023-10-08T07:38:59;100286.50;;;21.57;43.43
42297;BME280;72430;47.456;19.016;2023-10-08T07:42:05;100289.63;;;21.68;43.35
42297;BME280;72430;47.456;19.016;2023-10-08T07:45:07;100298.28;;;21.71;43.60
42297;BME280;72430;47.456;19.016;2023-10-08T07:48:10;100289.00;;;21.79;43.25
42297;BME280;72430;47.456;19.016;2023-10-08T07:51:14;100283.72;;;21.84;43.50
42297;BME280;72430;47.456;19.016;2023-10-08T07:54:17;100286.06;;;21.88;43.69
42297;BME280;72430;47.456;19.016;2023-10-08T07:57:20;100279.47;;;22.02;43.61
42297;BME280;72430;47.456;19.016;2023-10-08T08:00:28;100288.06;;;22.12;43.30
42297;BME280;72430;47.456;19.016;2023-10-08T08:03:33;100289.56;;;22.08;43.60
42297;BME280;72430;47.456;19.016;2023-10-08T08:06:37;100288.28;;;22.18;43.77
42297;BME280;72430;47.456;19.016;2023-10-08T08:09:39;100301.50;;;22.34;43.47
42297;BME280;72430;47.456;19.016;2023-10-08T08:12:41;100278.69;;;22.40;43.37
42297;BME280;72430;47.456;19.016;2023-10-08T08:15:43;100295.75;;;22.43;43.39
42297;BME280;72430;47.456;19.016;2023-10-08T08:18:54;100294.69;;;22.44;43.05
42297;BME280;72430;47.456;19.016;2023-10-08T08:21:59;100309.06;;;22.39;43.44
42297;BME280;72430;47.456;19.016;2023-10-08T08:25:04;100293.09;;;22.29;43.59
42297;BME280;72430;47.456;19.016;2023-10-08T08:28:17;100296.44;;;22.31;43.38
42297;BME280;72430;47.456;19.016;2023-10-08T08:31:19;100306.09;;;22.40;43.28
42297;BME280;72430;47.456;19.016;2023-10-08T08:34:21;100303.56;;;22.46;44.06
42297;BME280;72430;47.456;19.016;2023-10-08T08:37:23;100314.31;;;22.54;43.67
42297;BME280;72430;47.456;19.016;2023-10-08T08:40:27;100305.09;;;22.74;43.90
42297;BME280;72430;47.456;19.016;2023-10-08T08:43:30;100301.88;;;22.84;43.61
42297;BME280;72430;47.456;19.016;2023-10-08T08:46:36;100298.78;;;23.05;43.69
42297;BME280;72430;47.456;19.016;2023-10-08T08:49:42;100302.88;;;23.22;45.54
42297;BME280;72430;47.456;19.016;2023-10-08T08:52:44;100304.72;;;23.35;44.70
42297;BME280;72430;47.456;19.016;2023-10-08T08:55:50;100301.34;;;23.58;42.17
42297;BME280;72430;47.456;19.016;2023-10-08T08:58:55;100309.63;;;23.51;43.13
42297;BME280;72430;47.456;19.016;2023-10-08T09:02:00;100323.13;;;23.27;44.21
42297;BME280;72430;47.456;19.016;2023-10-08T09:05:02;100314.34;;;23.44;43.19
42297;BME280;72430;47.456;19.016;2023-10-08T09:08:14;100333.97;;;23.48;43.98
42297;BME280;72430;47.456;19.016;2023-10-08T09:11:19;100335.25;;;23.45;44.53
42297;BME280;72430;47.456;19.016;2023-10-08T09:14:22;100338.09;;;23.57;42.87
42297;BME280;72430;47.456;19.016;2023-10-08T09:17:26;100349.38;;;23.49;44.54
42297;BME280;72430;47.456;19.016;2023-10-08T09:20:29;100364.28;;;23.59;46.28
42297;BME280;72430;47.456;19.016;2023-10-08T09:23:33;100366.59;;;23.63;44.68
42297;BME280;72430;47.456;19.016;2023-10-08T09:26:38;100378.38;;;23.44;44.39
42297;BME280;72430;47.456;19.016;2023-10-08T09:29:42;100378.16;;;23.46;44.46
42297;BME280;72430;47.456;19.016;2023-10-08T09:32:44;100394.91;;;23.38;44.37
42297;BME280;72430;47.456;19.016;2023-10-08T09:35:47;100393.06;;;23.31;43.72
42297;BME280;72430;47.456;19.016;2023-10-08T09:38:50;100405.91;;;22.99;45.16
42297;BME280;72430;47.456;19.016;2023-10-08T09:41:55;100410.81;;;22.90;46.10
42297;BME280;72430;47.456;19.016;2023-10-08T09:44:57;100410.38;;;22.86;45.07
42297;BME280;72430;47.456;19.016;2023-10-08T09:48:01;100406.00;;;22.78;45.86
42297;BME280;72430;47.456;19.016;2023-10-08T09:51:10;100403.88;;;22.74;46.94
42297;BME280;72430;47.456;19.016;2023-10-08T09:54:23;100419.28;;;22.82;46.50
42297;BME280;72430;47.456;19.016;2023-10-08T09:57:28;100423.47;;;22.91;46.55
42297;BME280;72430;47.456;19.016;2023-10-08T10:00:37;100436.78;;;22.87;46.86
42297;BME280;72430;47.456;19.016;2023-10-08T10:03:40;100441.69;;;22.78;47.39
42297;BME280;72430;47.456;19.016;2023-10-08T10:06:45;100465.91;;;22.88;48.15
42297;BME280;72430;47.456;19.016;2023-10-08T10:09:51;100471.22;;;22.76;47.09
42297;BME280;72430;47.456;19.016;2023-10-08T10:13:00;100473.16;;;22.76;48.08
42297;BME280;72430;47.456;19.016;2023-10-08T10:16:05;100490.25;;;22.51;48.99
42297;BME280;72430;47.456;19.016;2023-10-08T10:19:17;100491.94;;;22.72;48.23
42297;BME280;72430;47.456;19.016;2023-10-08T10:22:48;100479.28;;;22.51;48.13
42297;BME280;72430;47.456;19.016;2023-10-08T10:25:50;100473.38;;;22.47;48.68
42297;BME280;72430;47.456;19.016;2023-10-08T10:32:12;100480.13;;;22.51;48.22
42297;BME280;72430;47.456;19.016;2023-10-08T10:35:17;100473.78;;;22.51;50.41
42297;BME280;72430;47.456;19.016;2023-10-08T10:38:21;100478.38;;;22.91;48.42
42297;BME280;72430;47.456;19.016;2023-10-08T10:41:28;100480.81;;;23.52;48.60
42297;BME280;72430;47.456;19.016;2023-10-08T10:44:31;100487.13;;;23.13;47.10
42297;BME280;72430;47.456;19.016;2023-10-08T10:47:33;100498.50;;;23.17;47.38
42297;BME280;72430;47.456;19.016;2023-10-08T10:50:49;100495.69;;;23.30;45.30
42297;BME280;72430;47.456;19.016;2023-10-08T10:54:07;100494.41;;;23.40;44.87
42297;BME280;72430;47.456;19.016;2023-10-08T10:57:12;100508.41;;;23.31;44.57
42297;BME280;72430;47.456;19.016;2023-10-08T11:00:20;100524.75;;;23.06;44.88
42297;BME280;72430;47.456;19.016;2023-10-08T11:03:34;100520.22;;;22.73;45.71
42297;BME280;72430;47.456;19.016;2023-10-08T11:06:37;100521.84;;;22.94;45.12
42297;BME280;72430;47.456;19.016;2023-10-08T11:09:41;100532.25;;;22.65;43.83
42297;BME280;72430;47.456;19.016;2023-10-08T11:12:46;100533.31;;;22.50;43.44
42297;BME280;72430;47.456;19.016;2023-10-08T11:15:55;100535.84;;;22.72;42.42
42297;BME280;72430;47.456;19.016;2023-10-08T11:18:59;100542.19;;;22.32;42.47
42297;BME280;72430;47.456;19.016;2023-10-08T11:22:08;100541.13;;;22.33;43.23
42297;BME280;72430;47.456;19.016;2023-10-08T11:25:24;100543.88;;;22.47;42.49
42297;BME280;72430;47.456;19.016;2023-10-08T11:28:34;100532.03;;;22.73;39.47
42297;BME280;72430;47.456;19.016;2023-10-08T11:31:36;100550.59;;;22.71;39.79
42297;BME280;72430;47.456;19.016;2023-10-08T11:34:39;100549.56;;;22.59;39.53
42297;BME280;72430;47.456;19.016;2023-10-08T11:37:46;100552.94;;;22.47;39.59
42297;BME280;72430;47.456;19.016;2023-10-08T11:40:54;100556.31;;;22.22;41.00
42297;BME280;72430;47.456;19.016;2023-10-08T11:43:59;100559.88;;;22.09;39.53
42297;BME280;72430;47.456;19.016;2023-10-08T11:47:03;100564.41;;;21.62;41.25
42297;BME280;72430;47.456;19.016;2023-10-08T11:53:21;100577.66;;;21.44;40.81
42297;BME280;72430;47.456;19.016;2023-10-08T11:56:23;100560.50;;;21.29;40.87
42297;BME280;72430;47.456;19.016;2023-10-08T11:59:25;100556.00;;;21.08;41.79
42297;BME280;72430;47.456;19.016;2023-10-08T12:02:27;100567.16;;;21.06;42.25
42297;BME280;72430;47.456;19.016;2023-10-08T12:05:30;100567.66;;;21.23;41.62
42297;BME280;72430;47.456;19.016;2023-10-08T12:08:34;100578.50;;;21.03;42.86
42297;BME280;72430;47.456;19.016;2023-10-08T12:11:41;100599.38;;;20.75;42.63
42297;BME280;72430;47.456;19.016;2023-10-08T12:14:44;100610.34;;;20.53;42.06
42297;BME280;72430;47.456;19.016;2023-10-08T12:17:49;100621.72;;;20.29;41.74
42297;BME280;72430;47.456;19.016;2023-10-08T12:21:10;100629.56;;;19.95;42.60
42297;BME280;72430;47.456;19.016;2023-10-08T12:24:13;100639.41;;;20.11;44.25
42297;BME280;72430;47.456;19.016;2023-10-08T12:27:16;100639.75;;;19.86;43.93
42297;BME280;72430;47.456;19.016;2023-10-08T12:30:18;100658.09;;;20.07;42.58
42297;BME280;72430;47.456;19.016;2023-10-08T12:33:21;100642.91;;;20.05;42.43
42297;BME280;72430;47.456;19.016;2023-10-08T12:36:26;100647.22;;;19.77;43.76
42297;BME280;72430;47.456;19.016;2023-10-08T12:39:34;100659.66;;;19.50;45.46
42297;BME280;72430;47.456;19.016;2023-10-08T12:42:45;100655.25;;;19.49;43.69
42297;BME280;72430;47.456;19.016;2023-10-08T12:45:51;100651.38;;;19.58;44.45
42297;BME280;72430;47.456;19.016;2023-10-08T12:48:56;100660.91;;;19.32;45.00
42297;BME280;72430;47.456;19.016;2023-10-08T12:51:58;100659.97;;;19.25;44.88
42297;BME280;72430;47.456;19.016;2023-10-08T12:55:04;100660.06;;;19.31;43.64
42297;BME280;72430;47.456;19.016;2023-10-08T12:58:06;100668.31;;;19.08;45.52
42297;BME280;72430;47.456;19.016;2023-10-08T13:01:11;100678.19;;;18.94;46.46
42297;BME280;72430;47.456;19.016;2023-10-08T13:04:15;100695.53;;;19.16;45.38
42297;BME280;72430;47.456;19.016;2023-10-08T13:07:23;100685.72;;;19.07;44.51
42297;BME280;72430;47.456;19.016;2023-10-08T13:10:25;100677.13;;;18.80;46.09
42297;BME280;72430;47.456;19.016;2023-10-08T13:13:28;100695.00;;;18.83;46.33
42297;BME280;72430;47.456;19.016;2023-10-08T13:16:30;100712.31;;;18.67;46.34
42297;BME280;72430;47.456;19.016;2023-10-08T13:19:39;100714.03;;;18.68;45.38
42297;BME280;72430;47.456;19.016;2023-10-08T13:22:41;100701.06;;;18.70;44.66
42297;BME280;72430;47.456;19.016;2023-10-08T13:25:44;100720.34;;;18.45;45.35
42297;BME280;72430;47.456;19.016;2023-10-08T13:28:48;100716.81;;;18.59;44.47
42297;BME280;72430;47.456;19.016;2023-10-08T13:31:50;100734.94;;;18.52;44.55
42297;BME280;72430;47.456;19.016;2023-10-08T13:34:52;100729.34;;;18.45;44.29
42297;BME280;72430;47.456;19.016;2023-10-08T13:37:54;100733.53;;;18.33;45.85
42297;BME280;72430;47.456;19.016;2023-10-08T13:40:57;100718.09;;;18.48;44.18
42297;BME280;72430;47.456;19.016;2023-10-08T13:44:05;100728.28;;;18.55;43.52
42297;BME280;72430;47.456;19.016;2023-10-08T13:47:07;100731.91;;;18.47;43.88
42297;BME280;72430;47.456;19.016;2023-10-08T13:50:10;100740.50;;;18.35;44.08
42297;BME280;72430;47.456;19.016;2023-10-08T13:53:14;100738.47;;;18.06;44.56
42297;BME280;72430;47.456;19.016;2023-10-08T13:56:16;100747.78;;;18.11;44.76
42297;BME280;72430;47.456;19.016;2023-10-08T13:59:20;100750.22;;;17.90;44.71
42297;BME280;72430;47.456;19.016;2023-10-08T14:02:26;100745.09;;;18.03;44.62
42297;BME280;72430;47.456;19.016;2023-10-08T14:05:27;100739.34;;;17.90;44.79
42297;BME280;72430;47.456;19.016;2023-10-08T14:08:31;100744.75;;;18.06;42.93
42297;BME280;72430;47.456;19.016;2023-10-08T14:11:33;100748.16;;;18.00;43.61
42297;BME280;72430;47.456;19.016;2023-10-08T14:14:35;100764.22;;;17.87;43.84
42297;BME280;72430;47.456;19.016;2023-10-08T14:17:37;100770.19;;;17.82;43.81
42297;BME280;72430;47.456;19.016;2023-10-08T14:20:45;100752.47;;;17.86;43.58
42297;BME280;72430;47.456;19.016;2023-10-08T14:23:48;100747.88;;;17.78;42.66
42297;BME280;72430;47.456;19.016;2023-10-08T14:26:52;100748.28;;;17.67;43.42
42297;BME280;72430;47.456;19.016;2023-10-08T14:29:56;100755.94;;;17.63;42.97
42297;BME280;72430;47.456;19.016;2023-10-08T14:33:02;100751.63;;;17.77;41.59
42297;BME280;72430;47.456;19.016;2023-10-08T14:36:06;100757.28;;;17.67;42.00
42297;BME280;72430;47.456;19.016;2023-10-08T14:39:26;100757.84;;;17.54;41.79
42297;BME280;72430;47.456;19.016;2023-10-08T14:42:48;100762.16;;;17.40;41.49
42297;BME280;72430;47.456;19.016;2023-10-08T14:46:05;100771.16;;;17.49;41.70
42297;BME280;72430;47.456;19.016;2023-10-08T14:49:11;100785.94;;;17.47;42.21
42297;BME280;72430;47.456;19.016;2023-10-08T14:52:13;100778.09;;;17.60;42.68
42297;BME280;72430;47.456;19.016;2023-10-08T14:55:15;100785.41;;;17.43;42.59
42297;BME280;72430;47.456;19.016;2023-10-08T14:58:17;100788.00;;;17.28;43.48
42297;BME280;72430;47.456;19.016;2023-10-08T15:01:20;100786.66;;;17.24;42.74
42297;BME280;72430;47.456;19.016;2023-10-08T15:04:22;100790.19;;;17.41;41.48
42297;BME280;72430;47.456;19.016;2023-10-08T15:07:24;100796.00;;;17.29;42.30
42297;BME280;72430;47.456;19.016;2023-10-08T15:10:26;100788.84;;;17.12;42.99
42297;BME280;72430;47.456;19.016;2023-10-08T15:13:27;100798.22;;;17.17;42.96
42297;BME280;72430;47.456;19.016;2023-10-08T15:16:30;100795.78;;;16.98;43.66
42297;BME280;72430;47.456;19.016;2023-10-08T15:19:32;100799.22;;;17.00;43.72
42297;BME280;72430;47.456;19.016;2023-10-08T15:22:34;100792.06;;;16.90;44.66
42297;BME280;72430;47.456;19.016;2023-10-08T15:25:39;100821.81;;;17.00;43.58
42297;BME280;72430;47.456;19.016;2023-10-08T15:28:41;100825.06;;;17.04;42.99
42297;BME280;72430;47.456;19.016;2023-10-08T15:31:43;100840.66;;;16.85;45.31
42297;BME280;72430;47.456;19.016;2023-10-08T15:34:46;100841.16;;;16.89;45.08
42297;BME280;72430;47.456;19.016;2023-10-08T15:37:51;100860.22;;;16.97;45.70
42297;BME280;72430;47.456;19.016;2023-10-08T15:40:53;100869.03;;;16.74;44.36
42297;BME280;72430;47.456;19.016;2023-10-08T15:43:56;100874.97;;;16.86;44.88
42297;BME280;72430;47.456;19.016;2023-10-08T15:47:00;100893.53;;;16.91;44.31
42297;BME280;72430;47.456;19.016;2023-10-08T15:50:02;100902.81;;;16.63;44.89
42297;BME280;72430;47.456;19.016;2023-10-08T15:53:04;100916.41;;;16.72;44.65
42297;BME280;72430;47.456;19.016;2023-10-08T15:56:06;100914.59;;;16.89;47.39
42297;BME280;72430;47.456;19.016;2023-10-08T15:59:07;100920.38;;;16.86;46.67
42297;BME280;72430;47.456;19.016;2023-10-08T16:02:09;100930.22;;;16.87;46.30
42297;BME280;72430;47.456;19.016;2023-10-08T16:05:12;100947.28;;;16.54;47.67
42297;BME280;72430;47.456;19.016;2023-10-08T16:08:15;100946.63;;;16.60;49.63